Terminal Aerodrome Forecast
Issued by NWS

Home | Current Version | Previous Version | Text Only | Print | Product List | Glossary On
Versions: 1 2 3 4 5 6 7 8 9 10 11 12 13 14 15 16 17 18 19 20 21
000
FTUS43 KMPX 272339
TAFRNH
TAF
KRNH 272339Z 2800/2824 10011KT 6SM -RA BR SCT040 OVC060
     FM280400 08010KT P6SM OVC060
     FM280800 07011KT 5SM -RA BR OVC040
     FM281500 06009KT P6SM -SHRA OVC050
     FM282000 05008KT P6SM OVC070=

USA.gov is the U.S. government's official web portal to all federal, state and local government web resources and services.